Time;durP1;ratioP1;P1;durP2;ratioP2;P2;SDS_P1;SDS_P2;PMS_P1;PMS_P2;Temp;Humidity;BMP_temperature;BMP_pressure;BME280_temperature;BME280_humidity;BME280_pressure;Samples;Min_cycle;Max_cycle;Signal;HPM_P1;HPM_P2
2023/10/01 00:01:52;;;;;;;8.15;2.97;;;13.40;99.90;;;;;;5035276;28;20048;-64
2023/10/01 00:04:20;;;;;;;7.00;2.35;;;13.30;99.90;;;;;;5035214;28;20116;-65
2023/10/01 00:06:47;;;;;;;7.53;2.85;;;13.30;99.90;;;;;;5038082;28;20033;-62
2023/10/01 00:09:19;;;;;;;13.40;3.40;;;13.30;99.90;;;;;;5035571;28;20132;-62
2023/10/01 00:11:46;;;;;;;12.18;2.35;;;13.30;99.90;;;;;;5038007;28;20057;-62
2023/10/01 00:14:16;;;;;;;9.98;3.05;;;13.30;99.90;;;;;;5035247;28;20490;-64
2023/10/01 00:16:53;;;;;;;9.40;3.13;;;13.30;99.90;;;;;;5040286;28;20037;-64
2023/10/01 00:19:21;;;;;;;7.25;3.47;;;13.30;99.90;;;;;;5035265;28;20049;-65
2023/10/01 00:21:48;;;;;;;9.93;2.97;;;13.30;99.90;;;;;;5040304;28;20052;-63
2023/10/01 00:24:14;;;;;;;12.27;2.40;;;13.30;99.90;;;;;;5032674;28;20042;-63
2023/10/01 00:26:42;;;;;;;14.48;2.78;;;13.30;99.90;;;;;;5034442;28;20052;-62
2023/10/01 00:29:09;;;;;;;14.40;3.63;;;13.30;99.90;;;;;;5036734;28;20137;-63
2023/10/01 00:31:36;;;;;;;7.57;2.17;;;13.30;99.90;;;;;;5036715;28;20471;-63
2023/10/01 00:34:07;;;;;;;18.45;4.05;;;13.30;99.90;;;;;;5038052;28;20061;-66
2023/10/01 00:36:35;;;;;;;;;;;13.30;99.90;;;;;;5036155;28;20037;-65
2023/10/01 00:39:02;;;;;;;11.07;3.45;;;13.30;99.90;;;;;;5036267;28;19921;-74
2023/10/01 00:41:30;;;;;;;10.07;2.92;;;13.20;99.90;;;;;;5037681;28;20483;-64
2023/10/01 00:44:00;;;;;;;14.52;3.78;;;13.20;99.90;;;;;;5038335;28;20070;-66
2023/10/01 00:46:27;;;;;;;12.07;3.75;;;13.20;99.90;;;;;;5068403;28;20053;-67
2023/10/01 00:48:54;;;;;;;6.72;2.25;;;13.20;99.90;;;;;;5036279;28;20034;-62
2023/10/01 00:51:21;;;;;;;15.32;3.13;;;13.20;99.90;;;;;;5035792;28;20048;-65
2023/10/01 00:53:50;;;;;;;7.43;2.13;;;13.20;99.90;;;;;;5033891;28;20530;-64
2023/10/01 00:56:20;;;;;;;8.05;2.40;;;13.20;99.90;;;;;;5034560;28;20042;-62
2023/10/01 00:58:48;;;;;;;7.35;2.83;;;13.20;99.90;;;;;;5036953;28;20041;-62
2023/10/01 01:01:16;;;;;;;7.32;2.38;;;13.20;99.90;;;;;;5036877;28;20123;-62
2023/10/01 01:03:43;;;;;;;9.98;3.03;;;13.20;99.90;;;;;;5033909;28;20033;-64
2023/10/01 01:06:13;;;;;;;14.02;2.90;;;13.20;99.90;;;;;;5032548;28;20049;-61
2023/10/01 01:08:56;;;;;;;10.68;2.78;;;13.20;99.90;;;;;;5028470;28;20041;-62
2023/10/01 01:11:26;;;;;;;11.32;3.45;;;13.20;99.90;;;;;;5036626;28;20061;-65
2023/10/01 01:13:53;;;;;;;8.57;2.35;;;13.20;99.90;;;;;;5065500;28;20057;-65
2023/10/01 01:16:20;;;;;;;5.88;1.98;;;13.10;99.90;;;;;;5036505;28;20099;-67
2023/10/01 01:18:51;;;;;;;8.60;2.83;;;13.10;99.90;;;;;;5033463;28;20033;-62
2023/10/01 01:21:20;;;;;;;10.40;3.53;;;13.10;99.90;;;;;;5037008;28;20053;-61
2023/10/01 01:23:50;;;;;;;9.23;2.28;;;13.10;99.90;;;;;;5035559;28;20077;-63
2023/10/01 01:26:21;;;;;;;11.57;3.65;;;13.10;99.90;;;;;;5036722;28;20055;-64
2023/10/01 01:28:48;;;;;;;5.32;2.30;;;13.10;99.90;;;;;;5034934;28;20541;-65
2023/10/01 01:31:16;;;;;;;8.02;2.78;;;13.10;99.90;;;;;;5036452;28;20088;-62
2023/10/01 01:33:56;;;;;;;5.47;2.38;;;13.10;99.90;;;;;;5032931;28;20066;-66
2023/10/01 01:36:23;;;;;;;13.63;3.45;;;13.00;99.90;;;;;;5031492;28;20386;-62
2023/10/01 01:39:09;;;;;;;10.70;2.47;;;13.10;99.90;;;;;;5037776;28;20069;-61
2023/10/01 01:41:43;;;;;;;6.90;1.58;;;13.10;99.90;;;;;;5034169;28;20053;-67
2023/10/01 01:44:14;;;;;;;4.03;1.73;;;13.00;99.90;;;;;;5032879;28;20716;-67
2023/10/01 01:46:47;;;;;;;11.40;2.20;;;13.00;99.90;;;;;;5034384;28;20037;-66
2023/10/01 01:49:19;;;;;;;8.65;3.03;;;13.00;99.90;;;;;;5035670;28;20390;-64
2023/10/01 01:52:03;;;;;;;10.27;2.35;;;13.00;99.90;;;;;;5033217;28;20471;-63
2023/10/01 01:54:34;;;;;;;12.70;3.03;;;13.00;99.90;;;;;;5033807;28;20044;-62
2023/10/01 01:57:12;;;;;;;5.18;2.40;;;13.00;99.90;;;;;;5035326;28;20077;-64
2023/10/01 01:59:41;;;;;;;11.32;3.33;;;13.00;99.90;;;;;;5060721;28;20626;-62
2023/10/01 02:02:10;;;;;;;9.68;3.75;;;13.00;99.90;;;;;;5037280;28;20653;-62
2023/10/01 02:05:20;;;;;;;15.13;2.90;;;13.00;99.90;;;;;;5037952;28;20420;-67
2023/10/01 02:07:33;;;;;;;7.97;2.55;;;13.00;99.90;;;;;;5033181;28;20418;-61
2023/10/01 02:10:00;;;;;;;15.27;2.75;;;13.00;99.90;;;;;;5030870;28;20129;-66
2023/10/01 02:12:30;;;;;;;7.00;2.20;;;13.00;99.90;;;;;;5029583;28;20044;-61
2023/10/01 02:14:57;;;;;;;11.95;2.28;;;13.00;99.90;;;;;;5043232;28;20048;-62
2023/10/01 02:17:29;;;;;;;11.25;4.15;;;13.00;99.90;;;;;;5033621;28;20140;-66
2023/10/01 02:19:58;;;;;;;7.88;2.33;;;13.00;99.90;;;;;;5035865;28;20115;-62
2023/10/01 02:22:27;;;;;;;7.65;2.78;;;13.00;99.90;;;;;;5034573;28;20033;-65
2023/10/01 02:24:54;;;;;;;6.95;2.03;;;13.00;99.90;;;;;;5029559;28;20049;-64
2023/10/01 02:27:28;;;;;;;17.50;2.35;;;13.00;99.90;;;;;;5038298;28;20037;-65
2023/10/01 02:30:13;;;;;;;11.13;3.03;;;12.90;99.90;;;;;;5032176;28;20268;-62
2023/10/01 02:32:49;;;;;;;15.75;4.70;;;12.90;99.90;;;;;;5031554;28;20049;-65
2023/10/01 02:35:34;;;;;;;12.80;2.38;;;12.90;99.90;;;;;;5033187;28;20041;-62
2023/10/01 02:38:06;;;;;;;6.97;2.45;;;12.90;99.90;;;;;;5033362;28;20695;-69
2023/10/01 02:40:37;;;;;;;8.88;3.33;;;12.90;99.90;;;;;;5035943;28;20072;-64
2023/10/01 02:43:12;;;;;;;7.90;2.70;;;12.90;99.90;;;;;;5032192;28;20041;-66
2023/10/01 02:45:41;;;;;;;9.10;2.17;;;12.90;99.90;;;;;;5030069;28;20638;-62
2023/10/01 02:48:18;;;;;;;7.22;2.53;;;12.90;99.90;;;;;;5034130;28;20044;-61
2023/10/01 02:50:52;;;;;;;11.85;1.80;;;12.90;99.90;;;;;;5034847;28;20037;-61
2023/10/01 02:53:21;;;;;;;11.52;2.40;;;12.90;99.90;;;;;;5031724;28;20140;-62
2023/10/01 02:55:51;;;;;;;6.47;1.98;;;12.90;99.90;;;;;;5032812;28;20053;-65
2023/10/01 02:58:28;;;;;;;12.00;2.80;;;12.90;99.90;;;;;;5037769;28;20074;-66
2023/10/01 03:00:56;;;;;;;10.85;2.80;;;12.90;99.90;;;;;;5032302;28;20050;-64
2023/10/01 03:03:32;;;;;;;6.85;1.48;;;12.90;99.90;;;;;;5039091;28;20042;-64
2023/10/01 03:06:08;;;;;;;7.28;3.28;;;12.90;99.90;;;;;;5031326;28;20115;-62
2023/10/01 03:11:22;;;;;;;6.18;1.98;;;12.90;99.90;;;;;;5033968;28;20057;-63
2023/10/01 03:13:51;;;;;;;9.13;2.22;;;12.90;99.90;;;;;;5033035;28;20073;-63
2023/10/01 03:19:17;;;;;;;13.32;3.97;;;12.90;99.90;;;;;;5067801;28;20049;-64
2023/10/01 03:24:32;;;;;;;7.68;2.45;;;12.90;99.90;;;;;;5034663;28;20254;-64
2023/10/01 03:27:19;;;;;;;4.07;2.23;;;12.80;99.90;;;;;;5034851;28;20037;-63
2023/10/01 03:30:00;;;;;;;5.85;2.00;;;12.90;99.90;;;;;;5030169;28;20045;-66
2023/10/01 03:32:29;;;;;;;5.47;1.75;;;12.90;99.90;;;;;;5034559;28;20053;-62
2023/10/01 03:34:56;;;;;;;8.63;2.30;;;12.90;99.90;;;;;;5027378;28;20053;-64
2023/10/01 03:37:27;;;;;;;3.45;1.83;;;12.90;99.90;;;;;;5037884;28;20055;-64
2023/10/01 03:40:05;;;;;;;7.57;2.00;;;12.90;99.90;;;;;;5034978;28;20052;-62
2023/10/01 03:42:36;;;;;;;6.68;2.25;;;12.90;99.90;;;;;;5039315;28;20063;-66
2023/10/01 03:47:41;;;;;;;10.50;3.15;;;12.90;99.90;;;;;;5038634;28;20037;-61
2023/10/01 03:50:09;;;;;;;6.95;2.40;;;12.90;99.90;;;;;;5035094;28;20103;-69
2023/10/01 03:52:49;;;;;;;11.52;2.17;;;12.90;99.90;;;;;;5035494;28;20553;-67
2023/10/01 03:55:26;;;;;;;6.35;2.78;;;12.90;99.90;;;;;;5039594;28;20045;-63
2023/10/01 03:58:06;;;;;;;13.05;3.03;;;12.90;99.90;;;;;;5036264;28;20479;-65
2023/10/01 04:00:40;;;;;;;8.35;2.63;;;12.90;99.90;;;;;;5035775;28;20044;-66
2023/10/01 04:03:13;;;;;;;6.38;2.38;;;12.80;99.90;;;;;;5032728;28;20038;-64
2023/10/01 04:05:45;;;;;;;8.50;2.38;;;12.90;99.90;;;;;;5038314;28;20052;-63
2023/10/01 04:08:12;;;;;;;7.50;2.10;;;12.80;99.90;;;;;;5037610;28;20044;-61
2023/10/01 04:10:41;;;;;;;4.03;1.27;;;12.90;99.90;;;;;;5035772;28;20049;-65
2023/10/01 04:13:20;;;;;;;11.00;2.40;;;12.90;99.90;;;;;;5038800;28;20049;-61
2023/10/01 04:15:55;;;;;;;6.75;1.33;;;12.90;99.90;;;;;;5034599;28;20069;-63
2023/10/01 04:18:24;;;;;;;7.07;1.75;;;12.80;99.90;;;;;;5037855;28;20045;-64
2023/10/01 04:23:35;;;;;;;5.70;2.25;;;12.80;99.90;;;;;;5036532;28;20415;-62
2023/10/01 04:26:11;;;;;;;6.32;1.90;;;12.90;99.90;;;;;;5037574;28;20037;-68
2023/10/01 04:28:44;;;;;;;7.07;2.25;;;12.90;99.90;;;;;;5036172;28;20551;-63
2023/10/01 04:31:15;;;;;;;6.72;1.63;;;12.90;99.90;;;;;;5034279;28;20048;-65
2023/10/01 04:33:44;;;;;;;7.88;2.63;;;12.90;99.90;;;;;;5032913;28;20037;-61
2023/10/01 04:36:16;;;;;;;7.17;2.43;;;12.90;99.90;;;;;;5034818;28;20037;-65
2023/10/01 04:38:59;;;;;;;6.00;1.77;;;12.90;99.90;;;;;;5039697;28;20040;-64
2023/10/01 04:41:27;;;;;;;11.63;2.03;;;12.80;99.90;;;;;;5030719;28;20041;-62
2023/10/01 04:43:59;;;;;;;5.38;1.58;;;12.90;99.90;;;;;;5039071;28;20072;-64
2023/10/01 04:46:29;;;;;;;13.15;3.90;;;12.90;99.90;;;;;;5035596;28;20051;-64
2023/10/01 04:48:57;;;;;;;5.28;2.10;;;12.90;99.90;;;;;;5036921;28;20125;-71
2023/10/01 04:51:44;;;;;;;14.68;1.98;;;12.90;99.90;;;;;;5031693;28;20121;-65
2023/10/01 04:54:21;;;;;;;6.35;1.90;;;12.90;99.90;;;;;;5037111;28;20052;-65
2023/10/01 04:56:49;;;;;;;7.10;1.90;;;12.90;99.90;;;;;;5035445;28;20052;-65
2023/10/01 04:59:18;;;;;;;6.38;1.88;;;12.90;99.90;;;;;;5036723;28;20041;-63
2023/10/01 05:01:47;;;;;;;8.40;2.00;;;12.90;99.90;;;;;;5038916;28;20052;-61
2023/10/01 05:04:14;;;;;;;8.38;2.47;;;12.90;99.90;;;;;;5036724;28;20479;-64
2023/10/01 05:06:59;;;;;;;11.00;2.40;;;12.90;99.90;;;;;;5037265;28;20069;-63
2023/10/01 05:09:33;;;;;;;9.15;2.38;;;12.90;99.90;;;;;;5035625;28;20049;-62
2023/10/01 05:12:03;;;;;;;6.20;3.15;;;12.90;99.90;;;;;;5037215;28;20124;-63
2023/10/01 05:14:32;;;;;;;7.78;2.55;;;12.90;99.90;;;;;;5035661;28;20079;-62
2023/10/01 05:17:07;;;;;;;5.13;1.90;;;12.90;99.90;;;;;;5035014;28;20046;-65
2023/10/01 05:19:38;;;;;;;6.93;2.20;;;12.90;99.90;;;;;;5033996;28;20541;-67
2023/10/01 05:22:08;;;;;;;7.35;1.58;;;12.90;99.90;;;;;;5032179;28;20053;-62
2023/10/01 05:24:35;;;;;;;6.95;1.90;;;12.90;99.90;;;;;;5035576;28;20041;-61
2023/10/01 05:27:18;;;;;;;9.13;2.40;;;12.90;99.90;;;;;;5031651;28;20132;-65
2023/10/01 05:29:46;;;;;;;8.05;2.13;;;12.90;99.90;;;;;;5037037;28;20110;-65
2023/10/01 05:32:13;;;;;;;7.60;1.73;;;12.90;99.90;;;;;;5031136;28;20163;-62
2023/10/01 05:34:46;;;;;;;7.95;2.63;;;12.90;99.90;;;;;;5038223;28;20576;-62
2023/10/01 05:37:24;;;;;;;6.57;2.05;;;12.90;99.90;;;;;;5032899;28;20119;-62
2023/10/01 05:39:58;;;;;;;7.82;2.00;;;12.90;99.90;;;;;;5036747;28;20380;-63
2023/10/01 05:42:40;;;;;;;6.78;2.28;;;13.00;99.90;;;;;;5031167;28;20045;-61
2023/10/01 05:45:18;;;;;;;9.90;2.35;;;13.00;99.90;;;;;;5036940;28;20127;-63
2023/10/01 05:47:51;;;;;;;3.88;1.30;;;13.00;99.90;;;;;;5038037;28;20040;-66
2023/10/01 05:50:19;;;;;;;14.70;3.08;;;13.00;99.90;;;;;;5035452;28;20037;-63
2023/10/01 05:52:47;;;;;;;8.25;1.95;;;13.00;99.90;;;;;;5034698;28;20039;-65
2023/10/01 05:55:17;;;;;;;6.68;2.13;;;13.00;99.90;;;;;;5040253;28;20111;-66
2023/10/01 05:57:44;;;;;;;7.65;1.75;;;13.00;99.90;;;;;;5032938;28;20690;-64
2023/10/01 06:00:18;;;;;;;7.00;1.65;;;13.10;99.90;;;;;;5027992;28;20564;-62
2023/10/01 06:03:00;;;;;;;6.85;1.92;;;13.10;99.90;;;;;;5030467;28;20044;-67
2023/10/01 06:05:42;;;;;;;6.45;1.95;;;13.10;99.90;;;;;;5037010;28;20130;-60
2023/10/01 06:08:17;;;;;;;6.72;1.48;;;13.10;99.90;;;;;;5030418;28;20048;-63
2023/10/01 06:11:07;;;;;;;6.53;2.08;;;13.20;99.90;;;;;;5031361;28;20481;-61
2023/10/01 06:13:48;;;;;;;10.02;2.55;;;13.20;99.90;;;;;;5037211;28;20056;-61
2023/10/01 06:16:23;;;;;;;7.32;1.77;;;13.10;99.90;;;;;;5034633;28;20072;-60
2023/10/01 06:18:56;;;;;;;10.63;2.65;;;13.20;99.90;;;;;;5034947;28;20044;-64
2023/10/01 06:21:24;;;;;;;10.32;2.08;;;13.10;99.90;;;;;;5032956;28;20491;-60
2023/10/01 06:23:53;;;;;;;8.68;2.03;;;13.20;99.90;;;;;;5037100;28;20463;-65
2023/10/01 06:26:29;;;;;;;6.53;1.10;;;13.20;99.90;;;;;;5035345;28;20041;-65
2023/10/01 06:28:57;;;;;;;4.72;2.08;;;13.20;99.90;;;;;;5031572;28;20041;-61
2023/10/01 06:31:27;;;;;;;3.03;1.10;;;13.20;99.90;;;;;;5035291;28;20041;-61
2023/10/01 06:33:55;;;;;;;11.02;2.20;;;13.20;99.90;;;;;;5029897;28;20060;-62
2023/10/01 06:36:23;;;;;;;7.50;1.60;;;13.20;99.90;;;;;;5034588;28;20048;-66
2023/10/01 06:38:53;;;;;;;12.90;2.40;;;13.20;99.90;;;;;;5034460;28;20037;-63
2023/10/01 06:41:25;;;;;;;6.82;1.65;;;13.20;99.90;;;;;;5035360;28;20044;-64
2023/10/01 06:43:56;;;;;;;9.10;1.52;;;13.20;99.90;;;;;;5035334;28;20110;-62
2023/10/01 06:46:29;;;;;;;;;;;13.20;99.90;;;;;;5040492;28;20060;-62
2023/10/01 06:48:58;;;;;;;8.38;2.45;;;13.30;99.90;;;;;;5038183;28;19921;-62
2023/10/01 06:51:26;;;;;;;3.47;1.67;;;13.20;99.90;;;;;;5032305;28;20048;-63
2023/10/01 06:53:59;;;;;;;4.60;1.52;;;13.20;99.90;;;;;;5036572;28;20044;-67
2023/10/01 06:56:29;;;;;;;6.38;1.80;;;13.20;99.90;;;;;;5032029;28;20050;-66
2023/10/01 07:01:34;;;;;;;3.78;1.73;;;13.20;99.90;;;;;;5033936;28;20060;-64
2023/10/01 07:04:05;;;;;;;8.65;2.28;;;13.20;99.90;;;;;;5036240;28;20041;-65
2023/10/01 07:06:36;;;;;;;3.35;1.45;;;13.30;99.90;;;;;;5034818;28;20045;-67
2023/10/01 07:09:04;;;;;;;10.55;1.45;;;13.30;99.90;;;;;;5033302;28;20036;-67
2023/10/01 07:11:31;;;;;;;6.28;2.45;;;13.30;99.90;;;;;;5026926;28;20134;-63
2023/10/01 07:13:58;;;;;;;6.53;1.88;;;13.30;99.90;;;;;;5035063;28;20449;-66
2023/10/01 07:19:21;;;;;;;7.30;1.95;;;13.40;99.90;;;;;;5031002;28;20452;-65
2023/10/01 07:21:56;;;;;;;8.15;1.40;;;13.40;99.90;;;;;;5029132;28;20049;-62
2023/10/01 07:24:30;;;;;;;6.10;1.60;;;13.40;99.90;;;;;;5036830;28;21182;-62
2023/10/01 07:27:03;;;;;;;6.22;1.42;;;13.30;99.90;;;;;;5030582;28;20042;-64
2023/10/01 07:29:34;;;;;;;4.85;1.42;;;13.40;99.90;;;;;;5035838;28;21631;-65
2023/10/01 07:32:08;;;;;;;5.45;1.67;;;13.40;99.90;;;;;;5030485;28;20120;-66
2023/10/01 07:34:39;;;;;;;5.47;2.58;;;13.40;99.90;;;;;;5035675;28;20041;-61
2023/10/01 07:37:08;;;;;;;7.50;1.40;;;13.40;99.90;;;;;;5033508;28;20374;-67
2023/10/01 07:39:37;;;;;;;10.40;2.70;;;13.30;99.90;;;;;;5035682;28;20065;-63
2023/10/01 07:42:04;;;;;;;6.70;2.50;;;13.40;99.90;;;;;;5035490;28;20285;-62
2023/10/01 07:44:35;;;;;;;6.07;1.67;;;13.40;99.90;;;;;;5035324;28;20049;-64
2023/10/01 07:47:06;;;;;;;8.48;1.33;;;13.50;99.90;;;;;;5028970;28;20045;-69
2023/10/01 07:49:49;;;;;;;6.57;1.30;;;13.50;99.90;;;;;;5038062;28;20590;-61
2023/10/01 07:52:17;;;;;;;7.80;2.15;;;13.50;99.90;;;;;;5032011;28;20532;-63
2023/10/01 07:54:48;;;;;;;5.75;2.20;;;13.50;99.90;;;;;;5035404;28;20843;-62
2023/10/01 07:57:18;;;;;;;;;;;13.50;99.90;;;;;;5033005;28;20038;-62
2023/10/01 07:59:46;;;;;;;10.45;1.38;;;13.50;99.90;;;;;;5033358;28;19925;-62
2023/10/01 08:02:19;;;;;;;11.85;2.33;;;13.50;99.90;;;;;;5029100;28;20044;-63
2023/10/01 08:04:57;;;;;;;5.28;1.88;;;13.50;99.90;;;;;;5035299;28;20037;-63
2023/10/01 08:07:30;;;;;;;7.63;1.45;;;13.50;99.90;;;;;;5035285;28;20383;-66
2023/10/01 08:09:59;;;;;;;4.93;1.45;;;13.60;99.90;;;;;;5032203;28;20574;-62
2023/10/01 08:12:29;;;;;;;3.47;1.10;;;13.60;99.90;;;;;;5033434;28;20603;-61
2023/10/01 08:17:47;;;;;;;10.27;1.42;;;13.60;99.90;;;;;;5031330;28;20020;-65
2023/10/01 08:20:16;;;;;;;2.53;1.02;;;13.60;99.90;;;;;;5034049;28;20128;-64
2023/10/01 08:22:43;;;;;;;5.78;1.65;;;13.70;99.90;;;;;;5034691;28;20041;-68
2023/10/01 08:25:12;;;;;;;5.05;1.38;;;13.70;99.90;;;;;;5041355;28;20149;-62
2023/10/01 08:28:26;;;;;;;4.22;1.35;;;13.70;99.90;;;;;;5034340;28;20045;-65
2023/10/01 08:30:38;;;;;;;4.45;1.30;;;13.70;99.90;;;;;;5035720;28;20133;-67
2023/10/01 08:33:19;;;;;;;5.15;1.25;;;13.70;99.90;;;;;;5037772;28;20478;-66
2023/10/01 08:38:36;;;;;;;5.72;2.10;;;13.80;99.90;;;;;;5041662;28;20029;-62
2023/10/01 08:41:05;;;;;;;3.08;1.55;;;13.70;99.90;;;;;;5036931;28;20041;-69
2023/10/01 08:43:36;;;;;;;5.55;1.38;;;13.70;99.90;;;;;;5039722;28;20045;-64
2023/10/01 08:46:15;;;;;;;8.30;3.00;;;13.70;99.90;;;;;;5032826;28;20076;-63
2023/10/01 08:48:43;;;;;;;3.78;1.42;;;13.60;99.90;;;;;;5035724;28;20138;-61
2023/10/01 08:51:16;;;;;;;8.93;3.00;;;13.60;99.90;;;;;;5037638;28;20040;-64
2023/10/01 08:53:45;;;;;;;8.77;1.35;;;13.60;99.90;;;;;;5037060;28;20087;-61
2023/10/01 08:56:15;;;;;;;7.00;1.52;;;13.60;99.90;;;;;;5034886;28;20041;-61
2023/10/01 08:58:59;;;;;;;5.13;1.60;;;13.70;99.90;;;;;;5035134;28;20055;-65
2023/10/01 09:01:29;;;;;;;6.28;1.65;;;13.70;99.90;;;;;;5038261;28;20049;-64
2023/10/01 09:03:57;;;;;;;4.15;1.33;;;13.70;99.90;;;;;;5034981;28;20067;-64
2023/10/01 09:06:58;;;;;;;3.00;1.92;;;13.70;99.90;;;;;;5037425;28;20499;-64
2023/10/01 09:09:26;;;;;;;9.07;1.60;;;13.80;99.90;;;;;;5034294;28;20045;-66
2023/10/01 09:11:58;;;;;;;4.03;2.28;;;13.80;99.90;;;;;;5041680;28;20055;-64
2023/10/01 09:14:38;;;;;;;4.32;1.17;;;13.80;99.90;;;;;;5041745;28;20476;-64
2023/10/01 09:17:26;;;;;;;4.75;1.23;;;13.80;99.90;;;;;;5036014;28;20456;-65
2023/10/01 09:19:56;;;;;;;3.40;1.75;;;13.70;99.90;;;;;;5038851;28;20072;-61
2023/10/01 09:22:44;;;;;;;7.30;2.28;;;13.80;99.90;;;;;;5037754;28;20037;-63
2023/10/01 09:25:20;;;;;;;6.22;2.03;;;13.80;99.90;;;;;;5035012;28;20051;-63
2023/10/01 09:27:57;;;;;;;4.22;1.20;;;14.00;99.90;;;;;;5039781;28;20095;-61
2023/10/01 09:30:31;;;;;;;9.50;2.70;;;13.90;99.90;;;;;;5039121;28;20044;-62
2023/10/01 09:33:14;;;;;;;5.25;1.33;;;14.00;99.90;;;;;;5032886;28;20863;-64
2023/10/01 09:36:02;;;;;;;5.10;1.38;;;14.00;99.90;;;;;;5033867;28;20033;-65
2023/10/01 09:38:29;;;;;;;7.20;2.08;;;14.00;99.90;;;;;;5038354;28;20041;-66
2023/10/01 09:40:57;;;;;;;4.60;1.35;;;14.00;99.90;;;;;;5036362;28;20376;-65
2023/10/01 09:43:24;;;;;;;6.15;3.22;;;14.10;99.90;;;;;;5035061;28;20046;-61
2023/10/01 09:45:53;;;;;;;4.85;1.20;;;14.20;99.90;;;;;;5034280;28;20040;-61
2023/10/01 09:48:29;;;;;;;5.90;1.48;;;14.30;99.90;;;;;;5033404;28;20041;-67
2023/10/01 09:51:13;;;;;;;3.88;1.17;;;14.40;99.90;;;;;;5033479;28;20033;-61
2023/10/01 09:53:53;;;;;;;3.35;1.05;;;14.40;99.90;;;;;;5030645;28;20077;-61
2023/10/01 09:59:19;;;;;;;7.00;2.05;;;14.30;99.90;;;;;;5031811;28;20498;-61
2023/10/01 10:01:46;;;;;;;2.75;1.05;;;14.30;99.90;;;;;;5034472;28;20060;-65
2023/10/01 10:04:20;;;;;;;4.60;1.50;;;14.40;99.90;;;;;;5031162;28;20061;-62
2023/10/01 10:06:59;;;;;;;5.32;2.47;;;14.40;99.90;;;;;;5030377;28;20045;-63
2023/10/01 10:09:30;;;;;;;5.57;1.27;;;14.50;99.90;;;;;;5037100;28;20092;-63
2023/10/01 10:12:01;;;;;;;4.72;1.40;;;14.50;99.90;;;;;;5033878;28;20348;-70
2023/10/01 10:14:29;;;;;;;8.23;1.88;;;14.60;99.90;;;;;;5034742;28;20049;-61
2023/10/01 10:17:25;;;;;;;5.32;1.65;;;14.60;99.90;;;;;;5036917;28;20059;-65
2023/10/01 10:23:14;;;;;;;3.38;1.20;;;14.70;99.90;;;;;;5032220;28;20152;-65
2023/10/01 10:25:44;;;;;;;5.28;1.83;;;14.70;99.90;;;;;;5036783;28;20052;-63
2023/10/01 10:28:24;;;;;;;5.05;1.05;;;14.60;99.90;;;;;;5034259;28;20387;-62
2023/10/01 10:31:29;;;;;;;2.95;1.45;;;14.70;99.90;;;;;;5030667;28;20043;-62
2023/10/01 10:34:21;;;;;;;5.32;1.15;;;14.80;99.90;;;;;;5037785;28;20041;-65
2023/10/01 10:36:54;;;;;;;4.03;1.17;;;14.80;99.90;;;;;;5034640;28;20045;-65
2023/10/01 10:39:49;;;;;;;6.28;1.48;;;14.80;99.90;;;;;;5039689;28;20043;-63
2023/10/01 10:42:29;;;;;;;5.13;1.30;;;14.90;99.90;;;;;;5034860;28;20037;-66
2023/10/01 10:45:19;;;;;;;9.35;1.33;;;15.00;99.90;;;;;;5040023;28;20045;-71
2023/10/01 10:48:03;;;;;;;8.73;2.22;;;15.10;99.90;;;;;;5037729;28;20070;-65
2023/10/01 10:51:02;;;;;;;6.38;1.27;;;15.10;99.90;;;;;;5033100;28;20076;-67
2023/10/01 10:53:51;;;;;;;4.53;1.20;;;15.10;99.90;;;;;;5036519;28;20036;-72
2023/10/01 10:56:34;;;;;;;6.03;2.00;;;15.20;99.90;;;;;;5034902;28;20573;-64
2023/10/01 10:59:03;;;;;;;5.50;1.65;;;15.30;99.90;;;;;;5035238;28;20041;-63
2023/10/01 11:01:43;;;;;;;4.67;1.60;;;15.40;99.90;;;;;;5033058;28;20563;-62
2023/10/01 11:04:12;;;;;;;3.42;1.85;;;15.50;99.90;;;;;;5036154;28;20076;-68
2023/10/01 11:06:40;;;;;;;5.15;2.90;;;15.30;99.90;;;;;;5036562;28;20402;-63
2023/10/01 11:09:25;;;;;;;8.05;1.75;;;15.40;99.90;;;;;;5034801;28;20037;-63
2023/10/01 11:11:56;;;;;;;5.07;1.55;;;15.30;99.90;;;;;;5033681;28;20056;-69
2023/10/01 11:14:25;;;;;;;5.13;1.60;;;15.40;99.90;;;;;;5035995;28;20881;-64
2023/10/01 11:16:52;;;;;;;6.18;1.30;;;15.30;99.90;;;;;;5035436;28;20140;-64
2023/10/01 11:19:28;;;;;;;5.05;1.60;;;15.30;99.90;;;;;;5034355;28;20048;-66
2023/10/01 11:21:59;;;;;;;2.80;1.48;;;15.30;99.90;;;;;;5037461;28;20048;-62
2023/10/01 11:24:32;;;;;;;4.63;1.52;;;15.20;99.90;;;;;;5039957;28;20075;-62
2023/10/01 11:27:19;;;;;;;3.63;1.20;;;15.30;99.90;;;;;;5035240;28;20073;-62
2023/10/01 11:29:59;;;;;;;5.93;1.58;;;15.30;99.90;;;;;;5035371;28;20037;-65
2023/10/01 11:35:36;;;;;;;4.05;1.23;;;15.30;99.90;;;;;;5032047;28;20044;-63
2023/10/01 11:38:07;;;;;;;3.03;2.03;;;15.30;99.90;;;;;;5036131;28;20041;-66
2023/10/01 11:43:32;;;;;;;4.05;1.40;;;15.40;99.90;;;;;;5030421;28;20041;-62
2023/10/01 11:49:37;;;;;;;6.68;1.85;;;15.40;99.90;;;;;;5034779;28;20049;-61
2023/10/01 11:52:27;;;;;;;9.00;2.28;;;15.40;99.90;;;;;;5027313;28;20037;-65
2023/10/01 11:54:54;;;;;;;2.93;1.40;;;15.30;99.90;;;;;;5029645;28;20507;-62
2023/10/01 11:57:23;;;;;;;5.18;1.15;;;15.40;99.90;;;;;;5031426;28;20041;-61
2023/10/01 11:59:54;;;;;;;4.60;1.15;;;15.50;99.90;;;;;;5037507;28;20051;-63
2023/10/01 12:02:33;;;;;;;6.03;1.52;;;15.60;99.90;;;;;;5040050;28;20036;-63
2023/10/01 12:05:03;;;;;;;6.03;1.27;;;15.60;99.90;;;;;;5040587;28;20045;-61
2023/10/01 12:07:39;;;;;;;3.25;1.85;;;15.60;99.90;;;;;;5034362;28;20037;-63
2023/10/01 12:10:30;;;;;;;2.63;1.23;;;15.70;99.90;;;;;;5037207;28;20131;-67
2023/10/01 12:12:56;;;;;;;3.17;1.60;;;15.80;99.90;;;;;;5041907;28;20041;-62
2023/10/01 12:15:34;;;;;;;3.28;1.33;;;15.80;99.90;;;;;;5036572;28;20120;-60
2023/10/01 12:18:15;;;;;;;5.22;1.73;;;15.80;99.90;;;;;;5036249;28;20108;-62
2023/10/01 12:20:50;;;;;;;;;;;15.70;99.90;;;;;;5033088;28;20049;-66
2023/10/01 12:23:22;;;;;;;13.70;3.35;;;15.80;99.90;;;;;;5038580;28;19996;-63
2023/10/01 12:25:52;;;;;;;7.53;1.45;;;15.80;99.90;;;;;;5037476;28;20730;-67
2023/10/01 12:28:29;;;;;;;3.63;2.13;;;15.70;99.90;;;;;;5038780;28;20057;-67
2023/10/01 12:30:58;;;;;;;3.53;1.77;;;15.80;99.90;;;;;;5039890;28;20042;-61
2023/10/01 12:33:40;;;;;;;6.13;1.33;;;15.90;99.90;;;;;;5035334;28;20466;-61
2023/10/01 12:39:16;;;;;;;2.92;1.67;;;16.00;99.90;;;;;;5037611;28;20679;-64
2023/10/01 12:41:47;;;;;;;5.60;1.50;;;16.00;99.90;;;;;;5037824;28;20549;-70
2023/10/01 12:44:24;;;;;;;3.97;1.10;;;16.00;99.90;;;;;;5033585;28;20121;-63
2023/10/01 12:46:54;;;;;;;5.47;1.65;;;16.00;99.90;;;;;;5033804;28;20060;-65
2023/10/01 12:49:21;;;;;;;5.45;2.45;;;16.20;99.90;;;;;;5068863;28;20048;-62
2023/10/01 12:51:48;;;;;;;4.75;1.40;;;16.10;99.90;;;;;;5037337;28;20382;-64
2023/10/01 12:54:18;;;;;;;2.80;1.20;;;15.90;99.90;;;;;;5040312;28;20029;-62
2023/10/01 12:57:02;;;;;;;4.95;2.22;;;15.80;99.90;;;;;;5040540;28;20387;-65
2023/10/01 12:59:38;;;;;;;2.35;1.40;;;15.80;99.90;;;;;;5033455;28;20037;-65
2023/10/01 13:02:22;;;;;;;3.25;2.53;;;15.90;99.90;;;;;;5033245;28;20036;-61
2023/10/01 13:07:43;;;;;;;4.88;1.73;;;15.90;99.90;;;;;;5038185;28;20034;-65
2023/10/01 13:10:10;;;;;;;6.18;2.33;;;15.90;99.90;;;;;;5031806;28;20045;-63
2023/10/01 13:12:39;;;;;;;4.90;2.13;;;16.10;99.90;;;;;;5033985;28;20465;-61
2023/10/01 13:15:17;;;;;;;3.95;1.58;;;16.10;99.90;;;;;;5032609;28;20042;-63
2023/10/01 13:17:44;;;;;;;3.60;1.88;;;16.10;99.90;;;;;;5036256;28;20041;-68
2023/10/01 13:20:22;;;;;;;4.22;1.75;;;16.20;99.90;;;;;;5035565;28;20067;-63
2023/10/01 13:22:59;;;;;;;10.68;2.55;;;16.30;99.90;;;;;;5035976;28;20048;-61
2023/10/01 13:25:26;;;;;;;9.15;2.65;;;16.20;99.90;;;;;;5037911;28;20835;-64
2023/10/01 13:28:04;;;;;;;3.65;1.48;;;16.20;99.90;;;;;;5038729;28;20044;-66
2023/10/01 13:31:03;;;;;;;5.20;1.70;;;16.30;99.90;;;;;;5032737;28;20107;-63
2023/10/01 13:33:22;;;;;;;4.57;1.80;;;16.30;99.90;;;;;;5036583;28;20476;-65
2023/10/01 13:35:50;;;;;;;5.32;2.45;;;16.30;99.90;;;;;;5037703;28;20041;-61
2023/10/01 14:08:44;;;;;;;5.85;2.17;;;16.50;99.90;;;;;;5036382;28;20033;-64
2023/10/01 14:11:15;;;;;;;8.18;2.05;;;16.50;99.90;;;;;;5036377;28;20076;-61
2023/10/01 14:13:43;;;;;;;3.38;1.90;;;16.50;99.90;;;;;;5032098;28;20514;-64
2023/10/01 14:16:18;;;;;;;4.55;2.53;;;16.60;99.90;;;;;;5038739;28;20182;-65
2023/10/01 14:19:13;;;;;;;8.38;2.92;;;16.60;99.90;;;;;;5032651;28;20080;-65
2023/10/01 14:21:40;;;;;;;5.38;2.25;;;16.70;99.90;;;;;;5030891;28;20049;-65
2023/10/01 14:24:24;;;;;;;3.83;1.98;;;16.60;99.90;;;;;;5037680;28;20056;-64
2023/10/01 14:26:51;;;;;;;3.38;2.20;;;16.60;99.90;;;;;;5033665;28;20137;-74
2023/10/01 14:29:24;;;;;;;4.40;1.90;;;16.60;99.90;;;;;;5035842;28;20503;-61
2023/10/01 14:31:52;;;;;;;4.25;1.98;;;16.70;99.90;;;;;;5034331;28;20069;-64
2023/10/01 14:34:20;;;;;;;6.32;2.60;;;16.80;99.90;;;;;;5034496;28;20044;-62